sensor_id;sensor_type;location;lat;lon;timestamp;P1;durP1;ratioP1;P2;durP2;ratioP2
20751;SDS011;10536;51.582;5.016;2022-11-15T00:04:41;85.73;;;34.50;;
20751;SDS011;10536;51.582;5.016;2022-11-15T00:09:41;84.43;;;35.20;;
20751;SDS011;10536;51.582;5.016;2022-11-15T00:14:41;88.97;;;35.60;;
20751;SDS011;10536;51.582;5.016;2022-11-15T00:19:42;88.38;;;36.85;;
20751;SDS011;10536;51.582;5.016;2022-11-15T00:24:42;82.97;;;35.03;;
20751;SDS011;10536;51.582;5.016;2022-11-15T00:29:43;87.15;;;35.55;;
20751;SDS011;10536;51.582;5.016;2022-11-15T00:34:43;82.43;;;35.50;;
20751;SDS011;10536;51.582;5.016;2022-11-15T00:39:44;89.82;;;38.17;;
20751;SDS011;10536;51.582;5.016;2022-11-15T00:44:44;81.90;;;35.90;;
20751;SDS011;10536;51.582;5.016;2022-11-15T00:49:44;84.77;;;36.07;;
20751;SDS011;10536;51.582;5.016;2022-11-15T00:54:45;77.38;;;36.45;;
20751;SDS011;10536;51.582;5.016;2022-11-15T00:59:45;81.65;;;36.28;;
20751;SDS011;10536;51.582;5.016;2022-11-15T01:04:46;76.93;;;35.70;;
20751;SDS011;10536;51.582;5.016;2022-11-15T01:09:46;76.68;;;34.78;;
20751;SDS011;10536;51.582;5.016;2022-11-15T01:14:46;72.50;;;37.17;;
20751;SDS011;10536;51.582;5.016;2022-11-15T01:19:47;70.90;;;38.00;;
20751;SDS011;10536;51.582;5.016;2022-11-15T01:24:49;68.97;;;36.92;;
20751;SDS011;10536;51.582;5.016;2022-11-15T01:29:50;65.57;;;33.78;;
20751;SDS011;10536;51.582;5.016;2022-11-15T01:34:50;69.63;;;35.25;;
20751;SDS011;10536;51.582;5.016;2022-11-15T01:39:50;68.50;;;35.00;;
20751;SDS011;10536;51.582;5.016;2022-11-15T01:44:51;64.10;;;33.47;;
20751;SDS011;10536;51.582;5.016;2022-11-15T01:50:04;71.20;;;34.38;;
20751;SDS011;10536;51.582;5.016;2022-11-15T01:55:18;69.22;;;35.63;;
20751;SDS011;10536;51.582;5.016;2022-11-15T02:00:21;72.20;;;33.42;;
20751;SDS011;10536;51.582;5.016;2022-11-15T02:05:22;64.40;;;33.67;;
20751;SDS011;10536;51.582;5.016;2022-11-15T02:10:23;64.25;;;34.60;;
20751;SDS011;10536;51.582;5.016;2022-11-15T02:15:25;68.25;;;34.13;;
20751;SDS011;10536;51.582;5.016;2022-11-15T02:31:27;64.10;;;31.92;;
20751;SDS011;10536;51.582;5.016;2022-11-15T02:36:36;71.90;;;35.47;;
20751;SDS011;10536;51.582;5.016;2022-11-15T02:41:46;77.13;;;40.03;;
20751;SDS011;10536;51.582;5.016;2022-11-15T02:46:57;57.83;;;33.75;;
20751;SDS011;10536;51.582;5.016;2022-11-15T02:52:16;70.82;;;35.22;;
20751;SDS011;10536;51.582;5.016;2022-11-15T02:57:17;64.85;;;34.78;;
20751;SDS011;10536;51.582;5.016;2022-11-15T03:18:00;61.92;;;34.33;;
20751;SDS011;10536;51.582;5.016;2022-11-15T03:23:05;61.65;;;32.40;;
20751;SDS011;10536;51.582;5.016;2022-11-15T03:28:09;61.33;;;32.42;;
20751;SDS011;10536;51.582;5.016;2022-11-15T03:33:11;55.15;;;30.55;;
20751;SDS011;10536;51.582;5.016;2022-11-15T03:38:17;59.42;;;31.63;;
20751;SDS011;10536;51.582;5.016;2022-11-15T03:43:30;58.80;;;30.48;;
20751;SDS011;10536;51.582;5.016;2022-11-15T03:48:37;55.20;;;29.77;;
20751;SDS011;10536;51.582;5.016;2022-11-15T03:53:41;50.47;;;29.27;;
20751;SDS011;10536;51.582;5.016;2022-11-15T03:58:42;62.47;;;31.70;;
20751;SDS011;10536;51.582;5.016;2022-11-15T04:03:42;51.20;;;29.47;;
20751;SDS011;10536;51.582;5.016;2022-11-15T04:08:43;58.77;;;30.73;;
20751;SDS011;10536;51.582;5.016;2022-11-15T04:13:43;53.27;;;29.67;;
20751;SDS011;10536;51.582;5.016;2022-11-15T04:18:43;57.47;;;31.73;;
20751;SDS011;10536;51.582;5.016;2022-11-15T04:23:44;55.65;;;31.20;;
20751;SDS011;10536;51.582;5.016;2022-11-15T04:28:53;53.95;;;29.75;;
20751;SDS011;10536;51.582;5.016;2022-11-15T04:34:12;55.63;;;31.20;;
20751;SDS011;10536;51.582;5.016;2022-11-15T04:39:12;60.37;;;31.53;;
20751;SDS011;10536;51.582;5.016;2022-11-15T04:44:13;57.40;;;30.33;;
20751;SDS011;10536;51.582;5.016;2022-11-15T04:49:13;56.45;;;30.50;;
20751;SDS011;10536;51.582;5.016;2022-11-15T04:54:14;55.90;;;31.67;;
20751;SDS011;10536;51.582;5.016;2022-11-15T04:59:14;67.97;;;32.93;;
20751;SDS011;10536;51.582;5.016;2022-11-15T05:04:14;71.20;;;34.10;;
20751;SDS011;10536;51.582;5.016;2022-11-15T05:09:21;72.45;;;33.83;;
20751;SDS011;10536;51.582;5.016;2022-11-15T05:14:21;70.70;;;32.97;;
20751;SDS011;10536;51.582;5.016;2022-11-15T05:19:22;62.72;;;32.63;;
20751;SDS011;10536;51.582;5.016;2022-11-15T05:24:23;55.25;;;30.60;;
20751;SDS011;10536;51.582;5.016;2022-11-15T05:29:23;64.28;;;34.05;;
20751;SDS011;10536;51.582;5.016;2022-11-15T05:34:24;60.97;;;32.07;;
20751;SDS011;10536;51.582;5.016;2022-11-15T05:39:25;56.33;;;31.10;;
20751;SDS011;10536;51.582;5.016;2022-11-15T05:44:26;57.92;;;30.83;;
20751;SDS011;10536;51.582;5.016;2022-11-15T05:49:29;61.83;;;31.73;;
20751;SDS011;10536;51.582;5.016;2022-11-15T05:54:31;57.47;;;29.33;;
20751;SDS011;10536;51.582;5.016;2022-11-15T05:59:33;57.08;;;29.42;;
20751;SDS011;10536;51.582;5.016;2022-11-15T06:04:35;57.85;;;30.42;;
20751;SDS011;10536;51.582;5.016;2022-11-15T06:09:36;58.92;;;30.15;;
20751;SDS011;10536;51.582;5.016;2022-11-15T06:14:36;53.97;;;31.35;;
20751;SDS011;10536;51.582;5.016;2022-11-15T06:19:37;67.68;;;29.58;;
20751;SDS011;10536;51.582;5.016;2022-11-15T06:24:37;52.22;;;26.27;;
20751;SDS011;10536;51.582;5.016;2022-11-15T06:29:37;47.95;;;25.67;;
20751;SDS011;10536;51.582;5.016;2022-11-15T06:34:38;52.22;;;25.13;;
20751;SDS011;10536;51.582;5.016;2022-11-15T06:39:38;53.05;;;25.65;;
20751;SDS011;10536;51.582;5.016;2022-11-15T06:44:39;43.23;;;23.33;;
20751;SDS011;10536;51.582;5.016;2022-11-15T06:49:39;46.10;;;21.57;;
20751;SDS011;10536;51.582;5.016;2022-11-15T06:54:39;40.73;;;21.17;;
20751;SDS011;10536;51.582;5.016;2022-11-15T06:59:40;46.50;;;21.57;;
20751;SDS011;10536;51.582;5.016;2022-11-15T07:04:40;40.30;;;20.83;;
20751;SDS011;10536;51.582;5.016;2022-11-15T07:09:43;37.70;;;19.67;;
20751;SDS011;10536;51.582;5.016;2022-11-15T07:14:56;39.80;;;20.00;;
20751;SDS011;10536;51.582;5.016;2022-11-15T07:20:02;37.58;;;19.35;;
20751;SDS011;10536;51.582;5.016;2022-11-15T07:25:08;37.15;;;19.17;;
20751;SDS011;10536;51.582;5.016;2022-11-15T07:30:09;31.15;;;18.35;;
20751;SDS011;10536;51.582;5.016;2022-11-15T07:35:17;48.42;;;19.25;;
20751;SDS011;10536;51.582;5.016;2022-11-15T07:40:17;33.83;;;18.87;;
20751;SDS011;10536;51.582;5.016;2022-11-15T07:45:17;30.87;;;17.30;;
20751;SDS011;10536;51.582;5.016;2022-11-15T07:50:18;35.38;;;17.95;;
20751;SDS011;10536;51.582;5.016;2022-11-15T07:55:19;42.80;;;21.30;;
20751;SDS011;10536;51.582;5.016;2022-11-15T08:00:19;35.03;;;20.93;;
20751;SDS011;10536;51.582;5.016;2022-11-15T08:05:20;40.30;;;20.40;;
20751;SDS011;10536;51.582;5.016;2022-11-15T08:10:20;32.80;;;19.40;;
20751;SDS011;10536;51.582;5.016;2022-11-15T08:15:21;34.50;;;18.58;;
20751;SDS011;10536;51.582;5.016;2022-11-15T08:20:21;32.80;;;17.52;;
20751;SDS011;10536;51.582;5.016;2022-11-15T08:25:22;33.63;;;18.40;;
20751;SDS011;10536;51.582;5.016;2022-11-15T08:30:26;30.47;;;18.73;;
20751;SDS011;10536;51.582;5.016;2022-11-15T08:35:27;23.77;;;16.42;;
20751;SDS011;10536;51.582;5.016;2022-11-15T08:40:28;28.98;;;17.27;;
20751;SDS011;10536;51.582;5.016;2022-11-15T08:45:29;35.50;;;17.23;;
20751;SDS011;10536;51.582;5.016;2022-11-15T08:50:30;32.42;;;17.02;;
20751;SDS011;10536;51.582;5.016;2022-11-15T08:55:30;27.70;;;15.77;;
20751;SDS011;10536;51.582;5.016;2022-11-15T09:00:31;25.33;;;14.43;;
20751;SDS011;10536;51.582;5.016;2022-11-15T09:05:31;24.02;;;13.10;;
20751;SDS011;10536;51.582;5.016;2022-11-15T09:10:32;18.13;;;12.05;;
20751;SDS011;10536;51.582;5.016;2022-11-15T09:15:32;18.67;;;12.30;;
20751;SDS011;10536;51.582;5.016;2022-11-15T09:20:33;13.45;;;9.93;;
20751;SDS011;10536;51.582;5.016;2022-11-15T09:25:34;12.38;;;8.95;;
20751;SDS011;10536;51.582;5.016;2022-11-15T09:30:34;12.68;;;8.27;;
20751;SDS011;10536;51.582;5.016;2022-11-15T09:35:35;8.02;;;7.10;;
20751;SDS011;10536;51.582;5.016;2022-11-15T09:40:36;12.68;;;7.35;;
20751;SDS011;10536;51.582;5.016;2022-11-15T09:50:53;12.65;;;6.88;;
20751;SDS011;10536;51.582;5.016;2022-11-15T09:56:03;11.75;;;6.00;;
20751;SDS011;10536;51.582;5.016;2022-11-15T10:01:16;7.07;;;5.53;;
20751;SDS011;10536;51.582;5.016;2022-11-15T10:06:38;6.05;;;4.38;;
20751;SDS011;10536;51.582;5.016;2022-11-15T10:11:46;9.50;;;4.43;;
20751;SDS011;10536;51.582;5.016;2022-11-15T10:17:02;7.97;;;3.83;;
20751;SDS011;10536;51.582;5.016;2022-11-15T10:22:25;4.97;;;3.20;;
20751;SDS011;10536;51.582;5.016;2022-11-15T10:27:28;8.38;;;3.38;;
20751;SDS011;10536;51.582;5.016;2022-11-15T10:32:29;7.60;;;2.78;;
20751;SDS011;10536;51.582;5.016;2022-11-15T10:37:34;3.03;;;2.22;;
20751;SDS011;10536;51.582;5.016;2022-11-15T10:42:34;14.77;;;2.60;;
20751;SDS011;10536;51.582;5.016;2022-11-15T10:47:34;13.63;;;1.90;;
20751;SDS011;10536;51.582;5.016;2022-11-15T10:52:36;6.13;;;1.80;;
20751;SDS011;10536;51.582;5.016;2022-11-15T10:57:52;5.30;;;1.50;;
20751;SDS011;10536;51.582;5.016;2022-11-15T11:07:59;7.85;;;1.23;;
20751;SDS011;10536;51.582;5.016;2022-11-15T11:18:38;3.58;;;1.10;;
20751;SDS011;10536;51.582;5.016;2022-11-15T11:29:37;10.73;;;1.30;;
20751;SDS011;10536;51.582;5.016;2022-11-15T11:34:33;11.18;;;1.55;;
20751;SDS011;10536;51.582;5.016;2022-11-15T11:50:49;9.77;;;1.35;;
20751;SDS011;10536;51.582;5.016;2022-11-15T11:56:02;4.93;;;1.00;;
20751;SDS011;10536;51.582;5.016;2022-11-15T12:06:35;7.90;;;1.15;;
20751;SDS011;10536;51.582;5.016;2022-11-15T12:12:31;4.00;;;1.30;;
20751;SDS011;10536;51.582;5.016;2022-11-15T12:17:24;5.50;;;1.30;;
20751;SDS011;10536;51.582;5.016;2022-11-15T12:43:58;14.13;;;1.27;;
20751;SDS011;10536;51.582;5.016;2022-11-15T12:49:00;6.57;;;0.75;;
20751;SDS011;10536;51.582;5.016;2022-11-15T12:54:14;5.65;;;1.02;;
20751;SDS011;10536;51.582;5.016;2022-11-15T12:59:47;4.35;;;0.77;;
20751;SDS011;10536;51.582;5.016;2022-11-15T13:04:49;3.83;;;0.50;;
20751;SDS011;10536;51.582;5.016;2022-11-15T13:09:51;2.88;;;0.70;;
20751;SDS011;10536;51.582;5.016;2022-11-15T13:14:57;3.40;;;0.70;;
20751;SDS011;10536;51.582;5.016;2022-11-15T13:25:03;3.97;;;0.70;;
20751;SDS011;10536;51.582;5.016;2022-11-15T13:30:04;3.88;;;0.70;;
20751;SDS011;10536;51.582;5.016;2022-11-15T13:35:06;4.45;;;0.90;;
20751;SDS011;10536;51.582;5.016;2022-11-15T13:40:26;3.08;;;0.98;;
20751;SDS011;10536;51.582;5.016;2022-11-15T13:45:34;2.38;;;0.82;;
20751;SDS011;10536;51.582;5.016;2022-11-15T13:50:35;3.50;;;0.90;;
20751;SDS011;10536;51.582;5.016;2022-11-15T13:55:38;7.78;;;1.05;;
20751;SDS011;10536;51.582;5.016;2022-11-15T14:00:42;3.07;;;1.30;;
20751;SDS011;10536;51.582;5.016;2022-11-15T14:11:18;7.13;;;1.20;;
20751;SDS011;10536;51.582;5.016;2022-11-15T14:21:21;9.15;;;1.13;;
20751;SDS011;10536;51.582;5.016;2022-11-15T14:26:29;8.88;;;1.00;;
20751;SDS011;10536;51.582;5.016;2022-11-15T14:31:34;6.88;;;1.58;;
20751;SDS011;10536;51.582;5.016;2022-11-15T14:36:34;3.55;;;0.93;;
20751;SDS011;10536;51.582;5.016;2022-11-15T14:41:35;1.75;;;0.80;;
20751;SDS011;10536;51.582;5.016;2022-11-15T14:46:39;6.45;;;1.08;;
20751;SDS011;10536;51.582;5.016;2022-11-15T14:51:39;4.60;;;1.07;;
20751;SDS011;10536;51.582;5.016;2022-11-15T14:56:40;2.53;;;1.10;;
20751;SDS011;10536;51.582;5.016;2022-11-15T15:01:42;3.78;;;1.42;;
20751;SDS011;10536;51.582;5.016;2022-11-15T15:06:43;3.70;;;1.25;;
20751;SDS011;10536;51.582;5.016;2022-11-15T15:11:43;7.73;;;1.60;;
20751;SDS011;10536;51.582;5.016;2022-11-15T15:16:44;5.55;;;1.52;;
20751;SDS011;10536;51.582;5.016;2022-11-15T15:21:45;2.37;;;1.10;;
20751;SDS011;10536;51.582;5.016;2022-11-15T15:26:45;3.05;;;1.30;;
20751;SDS011;10536;51.582;5.016;2022-11-15T15:31:46;7.35;;;1.40;;
20751;SDS011;10536;51.582;5.016;2022-11-15T15:36:46;7.25;;;1.40;;
20751;SDS011;10536;51.582;5.016;2022-11-15T15:41:47;3.92;;;1.40;;
20751;SDS011;10536;51.582;5.016;2022-11-15T15:46:47;4.03;;;1.70;;
20751;SDS011;10536;51.582;5.016;2022-11-15T15:51:48;3.90;;;1.50;;
20751;SDS011;10536;51.582;5.016;2022-11-15T15:56:48;5.73;;;1.30;;
20751;SDS011;10536;51.582;5.016;2022-11-15T16:01:48;7.80;;;1.77;;
20751;SDS011;10536;51.582;5.016;2022-11-15T16:06:49;2.33;;;1.63;;
20751;SDS011;10536;51.582;5.016;2022-11-15T16:11:52;6.90;;;1.75;;
20751;SDS011;10536;51.582;5.016;2022-11-15T16:16:52;8.17;;;1.73;;
20751;SDS011;10536;51.582;5.016;2022-11-15T16:21:53;5.73;;;2.00;;
20751;SDS011;10536;51.582;5.016;2022-11-15T16:26:53;6.63;;;2.55;;
20751;SDS011;10536;51.582;5.016;2022-11-15T16:31:54;3.97;;;2.30;;
20751;SDS011;10536;51.582;5.016;2022-11-15T16:36:54;6.30;;;2.20;;
20751;SDS011;10536;51.582;5.016;2022-11-15T16:41:56;8.40;;;2.67;;
20751;SDS011;10536;51.582;5.016;2022-11-15T16:46:57;10.48;;;3.40;;
20751;SDS011;10536;51.582;5.016;2022-11-15T16:51:57;5.13;;;2.73;;
20751;SDS011;10536;51.582;5.016;2022-11-15T16:56:57;12.03;;;3.50;;
20751;SDS011;10536;51.582;5.016;2022-11-15T17:01:58;8.17;;;3.80;;
20751;SDS011;10536;51.582;5.016;2022-11-15T17:06:58;9.43;;;3.67;;
20751;SDS011;10536;51.582;5.016;2022-11-15T17:11:59;12.98;;;3.70;;
20751;SDS011;10536;51.582;5.016;2022-11-15T17:16:59;13.10;;;4.23;;
20751;SDS011;10536;51.582;5.016;2022-11-15T17:22:00;5.70;;;4.17;;
20751;SDS011;10536;51.582;5.016;2022-11-15T17:27:00;5.43;;;4.93;;
20751;SDS011;10536;51.582;5.016;2022-11-15T17:32:00;8.05;;;5.35;;
20751;SDS011;10536;51.582;5.016;2022-11-15T17:37:01;10.57;;;5.97;;
20751;SDS011;10536;51.582;5.016;2022-11-15T17:42:01;10.63;;;5.40;;
20751;SDS011;10536;51.582;5.016;2022-11-15T17:47:02;9.98;;;5.45;;
20751;SDS011;10536;51.582;5.016;2022-11-15T17:52:02;9.63;;;6.93;;
20751;SDS011;10536;51.582;5.016;2022-11-15T17:57:02;8.83;;;6.10;;
20751;SDS011;10536;51.582;5.016;2022-11-15T18:02:03;11.98;;;6.70;;
20751;SDS011;10536;51.582;5.016;2022-11-15T18:07:05;10.13;;;6.40;;
20751;SDS011;10536;51.582;5.016;2022-11-15T18:12:05;14.10;;;7.83;;
20751;SDS011;10536;51.582;5.016;2022-11-15T18:17:06;12.63;;;8.30;;
20751;SDS011;10536;51.582;5.016;2022-11-15T18:22:06;14.25;;;12.07;;
20751;SDS011;10536;51.582;5.016;2022-11-15T18:27:09;10.85;;;9.80;;
20751;SDS011;10536;51.582;5.016;2022-11-15T18:32:09;10.23;;;8.80;;
20751;SDS011;10536;51.582;5.016;2022-11-15T18:37:14;19.85;;;18.00;;
20751;SDS011;10536;51.582;5.016;2022-11-15T18:42:14;18.43;;;14.03;;
20751;SDS011;10536;51.582;5.016;2022-11-15T18:47:14;11.10;;;8.64;;
20751;SDS011;10536;51.582;5.016;2022-11-15T18:52:15;12.25;;;9.15;;
20751;SDS011;10536;51.582;5.016;2022-11-15T18:57:16;14.50;;;10.70;;
20751;SDS011;10536;51.582;5.016;2022-11-15T19:02:16;14.50;;;11.67;;
20751;SDS011;10536;51.582;5.016;2022-11-15T19:07:16;34.50;;;24.17;;
20751;SDS011;10536;51.582;5.016;2022-11-15T19:12:17;14.52;;;11.43;;
20751;SDS011;10536;51.582;5.016;2022-11-15T19:17:17;22.20;;;13.27;;
20751;SDS011;10536;51.582;5.016;2022-11-15T19:22:18;18.63;;;12.57;;
20751;SDS011;10536;51.582;5.016;2022-11-15T19:27:18;16.90;;;12.63;;
20751;SDS011;10536;51.582;5.016;2022-11-15T19:32:19;20.23;;;17.25;;
20751;SDS011;10536;51.582;5.016;2022-11-15T19:37:19;17.17;;;14.55;;
20751;SDS011;10536;51.582;5.016;2022-11-15T19:42:20;24.93;;;15.43;;
20751;SDS011;10536;51.582;5.016;2022-11-15T19:47:20;21.00;;;15.00;;
20751;SDS011;10536;51.582;5.016;2022-11-15T19:52:20;22.37;;;17.23;;
20751;SDS011;10536;51.582;5.016;2022-11-15T19:57:23;21.77;;;15.93;;
20751;SDS011;10536;51.582;5.016;2022-11-15T20:02:23;22.17;;;18.00;;
20751;SDS011;10536;51.582;5.016;2022-11-15T20:07:23;21.37;;;17.50;;
20751;SDS011;10536;51.582;5.016;2022-11-15T20:12:24;27.80;;;22.00;;
20751;SDS011;10536;51.582;5.016;2022-11-15T20:17:24;29.45;;;20.60;;
20751;SDS011;10536;51.582;5.016;2022-11-15T20:22:25;22.20;;;17.55;;
20751;SDS011;10536;51.582;5.016;2022-11-15T20:27:26;24.27;;;16.05;;
20751;SDS011;10536;51.582;5.016;2022-11-15T20:32:26;27.52;;;19.15;;
20751;SDS011;10536;51.582;5.016;2022-11-15T20:37:27;26.30;;;18.60;;
20751;SDS011;10536;51.582;5.016;2022-11-15T20:42:27;27.88;;;18.15;;
20751;SDS011;10536;51.582;5.016;2022-11-15T20:47:30;23.02;;;18.50;;
20751;SDS011;10536;51.582;5.016;2022-11-15T20:57:32;23.45;;;17.42;;
20751;SDS011;10536;51.582;5.016;2022-11-15T21:02:33;26.20;;;18.43;;
20751;SDS011;10536;51.582;5.016;2022-11-15T21:07:33;36.37;;;26.00;;
20751;SDS011;10536;51.582;5.016;2022-11-15T21:12:33;26.80;;;19.37;;
20751;SDS011;10536;51.582;5.016;2022-11-15T21:17:34;26.50;;;20.20;;
20751;SDS011;10536;51.582;5.016;2022-11-15T21:22:35;26.17;;;20.00;;
20751;SDS011;10536;51.582;5.016;2022-11-15T21:27:35;36.22;;;22.65;;
20751;SDS011;10536;51.582;5.016;2022-11-15T21:32:36;196.95;;;119.95;;
20751;SDS011;10536;51.582;5.016;2022-11-15T21:37:38;38.15;;;24.77;;
20751;SDS011;10536;51.582;5.016;2022-11-15T21:42:38;30.80;;;23.50;;
20751;SDS011;10536;51.582;5.016;2022-11-15T21:47:38;30.57;;;20.47;;
20751;SDS011;10536;51.582;5.016;2022-11-15T21:52:39;30.67;;;21.60;;
20751;SDS011;10536;51.582;5.016;2022-11-15T21:57:41;29.38;;;21.67;;
20751;SDS011;10536;51.582;5.016;2022-11-15T22:02:41;30.53;;;20.60;;
20751;SDS011;10536;51.582;5.016;2022-11-15T22:07:42;28.93;;;20.40;;
20751;SDS011;10536;51.582;5.016;2022-11-15T22:12:42;34.97;;;21.87;;
20751;SDS011;10536;51.582;5.016;2022-11-15T22:17:42;36.78;;;22.52;;
20751;SDS011;10536;51.582;5.016;2022-11-15T22:22:58;42.40;;;24.70;;
20751;SDS011;10536;51.582;5.016;2022-11-15T22:28:00;39.70;;;27.65;;
20751;SDS011;10536;51.582;5.016;2022-11-15T22:33:01;37.13;;;23.83;;
20751;SDS011;10536;51.582;5.016;2022-11-15T22:38:01;31.00;;;20.87;;
20751;SDS011;10536;51.582;5.016;2022-11-15T22:43:01;32.80;;;20.67;;
20751;SDS011;10536;51.582;5.016;2022-11-15T22:48:03;35.33;;;21.48;;
20751;SDS011;10536;51.582;5.016;2022-11-15T22:53:03;39.63;;;21.70;;
20751;SDS011;10536;51.582;5.016;2022-11-15T22:58:04;38.50;;;22.57;;
20751;SDS011;10536;51.582;5.016;2022-11-15T23:03:04;33.47;;;21.67;;
20751;SDS011;10536;51.582;5.016;2022-11-15T23:08:04;36.87;;;22.57;;
20751;SDS011;10536;51.582;5.016;2022-11-15T23:13:05;38.87;;;23.37;;
20751;SDS011;10536;51.582;5.016;2022-11-15T23:18:17;33.92;;;21.85;;
20751;SDS011;10536;51.582;5.016;2022-11-15T23:23:18;38.58;;;21.52;;
20751;SDS011;10536;51.582;5.016;2022-11-15T23:28:18;35.35;;;21.88;;
20751;SDS011;10536;51.582;5.016;2022-11-15T23:33:19;28.13;;;19.40;;
20751;SDS011;10536;51.582;5.016;2022-11-15T23:38:38;35.15;;;22.08;;
20751;SDS011;10536;51.582;5.016;2022-11-15T23:43:39;33.92;;;23.25;;
20751;SDS011;10536;51.582;5.016;2022-11-15T23:48:39;39.30;;;24.37;;
20751;SDS011;10536;51.582;5.016;2022-11-15T23:53:40;41.67;;;23.02;;
20751;SDS011;10536;51.582;5.016;2022-11-15T23:58:40;37.53;;;23.95;;
